sensor_id;sensor_type;location;lat;lon;timestamp;temperature;humidity
25200;DHT22;33094;48.782;9.162;2022-08-20T00:00:28;21.20;99.90
25200;DHT22;33094;48.782;9.162;2022-08-20T00:02:55;21.20;99.90
25200;DHT22;33094;48.782;9.162;2022-08-20T00:05:30;21.10;99.90
25200;DHT22;33094;48.782;9.162;2022-08-20T00:07:56;21.00;99.90
25200;DHT22;33094;48.782;9.162;2022-08-20T00:10:23;21.00;99.90
25200;DHT22;33094;48.782;9.162;2022-08-20T00:12:49;21.00;99.90
25200;DHT22;33094;48.782;9.162;2022-08-20T00:15:15;21.00;99.90
25200;DHT22;33094;48.782;9.162;2022-08-20T00:17:49;20.90;99.90
25200;DHT22;33094;48.782;9.162;2022-08-20T00:20:16;21.00;99.90
25200;DHT22;33094;48.782;9.162;2022-08-20T00:22:42;20.80;99.90
25200;DHT22;33094;48.782;9.162;2022-08-20T00:25:08;20.80;99.90
25200;DHT22;33094;48.782;9.162;2022-08-20T00:27:34;20.80;99.90
25200;DHT22;33094;48.782;9.162;2022-08-20T00:29:59;20.80;99.90
25200;DHT22;33094;48.782;9.162;2022-08-20T00:32:25;20.70;99.90
25200;DHT22;33094;48.782;9.162;2022-08-20T00:34:50;20.70;99.90
25200;DHT22;33094;48.782;9.162;2022-08-20T00:37:16;20.80;99.90
25200;DHT22;33094;48.782;9.162;2022-08-20T00:39:42;20.80;99.90
25200;DHT22;33094;48.782;9.162;2022-08-20T00:42:07;20.90;99.90
25200;DHT22;33094;48.782;9.162;2022-08-20T00:44:33;20.80;99.90
25200;DHT22;33094;48.782;9.162;2022-08-20T00:46:59;20.90;99.90
25200;DHT22;33094;48.782;9.162;2022-08-20T00:49:26;20.90;99.90
25200;DHT22;33094;48.782;9.162;2022-08-20T00:52:12;20.90;99.90
25200;DHT22;33094;48.782;9.162;2022-08-20T00:54:52;20.90;99.90
25200;DHT22;33094;48.782;9.162;2022-08-20T00:59:47;20.90;99.90
25200;DHT22;33094;48.782;9.162;2022-08-20T01:02:14;20.90;99.90
25200;DHT22;33094;48.782;9.162;2022-08-20T01:04:40;20.90;99.90
25200;DHT22;33094;48.782;9.162;2022-08-20T01:07:09;20.90;99.90
25200;DHT22;33094;48.782;9.162;2022-08-20T01:09:35;21.00;99.90
25200;DHT22;33094;48.782;9.162;2022-08-20T01:12:02;21.00;99.90
25200;DHT22;33094;48.782;9.162;2022-08-20T01:14:28;20.90;99.90
25200;DHT22;33094;48.782;9.162;2022-08-20T01:17:01;21.00;99.90
25200;DHT22;33094;48.782;9.162;2022-08-20T01:19:31;21.00;99.90
25200;DHT22;33094;48.782;9.162;2022-08-20T01:21:58;21.00;99.90
25200;DHT22;33094;48.782;9.162;2022-08-20T01:24:34;21.00;99.90
25200;DHT22;33094;48.782;9.162;2022-08-20T01:27:02;20.90;99.90
25200;DHT22;33094;48.782;9.162;2022-08-20T01:29:30;20.90;99.90
25200;DHT22;33094;48.782;9.162;2022-08-20T01:31:58;20.90;99.90
25200;DHT22;33094;48.782;9.162;2022-08-20T01:34:26;21.00;99.90
25200;DHT22;33094;48.782;9.162;2022-08-20T01:36:52;21.00;99.90
25200;DHT22;33094;48.782;9.162;2022-08-20T01:39:20;21.00;99.90
25200;DHT22;33094;48.782;9.162;2022-08-20T01:41:48;21.00;99.90
25200;DHT22;33094;48.782;9.162;2022-08-20T01:44:17;23.20;99.90
25200;DHT22;33094;48.782;9.162;2022-08-20T01:46:43;21.00;99.90
25200;DHT22;33094;48.782;9.162;2022-08-20T01:49:15;20.90;99.90
25200;DHT22;33094;48.782;9.162;2022-08-20T01:51:41;21.00;99.90
25200;DHT22;33094;48.782;9.162;2022-08-20T01:54:06;21.00;99.90
25200;DHT22;33094;48.782;9.162;2022-08-20T01:56:32;21.00;99.90
25200;DHT22;33094;48.782;9.162;2022-08-20T01:59:00;21.00;99.90
25200;DHT22;33094;48.782;9.162;2022-08-20T02:01:30;21.00;99.90
25200;DHT22;33094;48.782;9.162;2022-08-20T02:03:59;21.00;99.90
25200;DHT22;33094;48.782;9.162;2022-08-20T02:06:25;21.00;99.90
25200;DHT22;33094;48.782;9.162;2022-08-20T02:08:52;21.00;99.90
25200;DHT22;33094;48.782;9.162;2022-08-20T02:11:18;20.90;99.90
25200;DHT22;33094;48.782;9.162;2022-08-20T02:13:44;21.00;99.90
25200;DHT22;33094;48.782;9.162;2022-08-20T02:16:09;23.00;99.90
25200;DHT22;33094;48.782;9.162;2022-08-20T02:18:35;21.00;99.90
25200;DHT22;33094;48.782;9.162;2022-08-20T02:21:01;21.00;99.90
25200;DHT22;33094;48.782;9.162;2022-08-20T02:23:26;20.90;99.90
25200;DHT22;33094;48.782;9.162;2022-08-20T02:25:52;20.90;99.90
25200;DHT22;33094;48.782;9.162;2022-08-20T02:28:18;20.80;99.90
25200;DHT22;33094;48.782;9.162;2022-08-20T02:30:47;20.80;99.90
25200;DHT22;33094;48.782;9.162;2022-08-20T02:33:14;20.80;99.90
25200;DHT22;33094;48.782;9.162;2022-08-20T02:35:40;20.80;99.90
25200;DHT22;33094;48.782;9.162;2022-08-20T02:38:08;20.80;99.90
25200;DHT22;33094;48.782;9.162;2022-08-20T02:40:34;20.90;99.90
25200;DHT22;33094;48.782;9.162;2022-08-20T02:43:00;20.90;99.90
25200;DHT22;33094;48.782;9.162;2022-08-20T02:45:27;20.90;99.90
25200;DHT22;33094;48.782;9.162;2022-08-20T02:47:53;20.90;99.90
25200;DHT22;33094;48.782;9.162;2022-08-20T02:50:21;20.90;99.90
25200;DHT22;33094;48.782;9.162;2022-08-20T02:52:48;22.00;99.90
25200;DHT22;33094;48.782;9.162;2022-08-20T02:55:13;20.90;99.90
25200;DHT22;33094;48.782;9.162;2022-08-20T02:57:39;20.90;99.90
25200;DHT22;33094;48.782;9.162;2022-08-20T03:00:12;20.90;99.90
25200;DHT22;33094;48.782;9.162;2022-08-20T03:02:38;20.90;99.90
25200;DHT22;33094;48.782;9.162;2022-08-20T03:05:04;20.80;99.90
25200;DHT22;33094;48.782;9.162;2022-08-20T03:07:30;20.70;99.90
25200;DHT22;33094;48.782;9.162;2022-08-20T03:09:55;20.70;99.90
25200;DHT22;33094;48.782;9.162;2022-08-20T03:12:21;20.60;99.90
25200;DHT22;33094;48.782;9.162;2022-08-20T03:14:46;20.60;99.90
25200;DHT22;33094;48.782;9.162;2022-08-20T03:17:12;20.50;99.90
25200;DHT22;33094;48.782;9.162;2022-08-20T03:19:37;20.50;99.90
25200;DHT22;33094;48.782;9.162;2022-08-20T03:22:03;20.50;99.90
25200;DHT22;33094;48.782;9.162;2022-08-20T03:24:29;20.50;99.90
25200;DHT22;33094;48.782;9.162;2022-08-20T03:26:54;20.50;99.90
25200;DHT22;33094;48.782;9.162;2022-08-20T03:29:20;20.50;99.90
25200;DHT22;33094;48.782;9.162;2022-08-20T03:31:45;20.50;99.90
25200;DHT22;33094;48.782;9.162;2022-08-20T03:34:11;20.50;99.90
25200;DHT22;33094;48.782;9.162;2022-08-20T03:36:36;20.50;99.90
25200;DHT22;33094;48.782;9.162;2022-08-20T03:39:04;20.40;99.90
25200;DHT22;33094;48.782;9.162;2022-08-20T03:41:30;20.50;99.90
25200;DHT22;33094;48.782;9.162;2022-08-20T03:43:56;20.60;99.90
25200;DHT22;33094;48.782;9.162;2022-08-20T03:46:22;20.60;99.90
25200;DHT22;33094;48.782;9.162;2022-08-20T03:48:48;20.60;99.90
25200;DHT22;33094;48.782;9.162;2022-08-20T03:51:14;20.70;99.90
25200;DHT22;33094;48.782;9.162;2022-08-20T03:53:39;20.60;99.90
25200;DHT22;33094;48.782;9.162;2022-08-20T03:56:05;20.60;99.90
25200;DHT22;33094;48.782;9.162;2022-08-20T03:58:32;20.70;99.90
25200;DHT22;33094;48.782;9.162;2022-08-20T04:00:58;20.60;99.90
25200;DHT22;33094;48.782;9.162;2022-08-20T04:03:24;20.70;99.90
25200;DHT22;33094;48.782;9.162;2022-08-20T04:05:50;20.60;99.90
25200;DHT22;33094;48.782;9.162;2022-08-20T04:08:23;20.60;99.90
25200;DHT22;33094;48.782;9.162;2022-08-20T04:10:50;20.60;99.90
25200;DHT22;33094;48.782;9.162;2022-08-20T04:13:16;20.60;99.90
25200;DHT22;33094;48.782;9.162;2022-08-20T04:15:42;20.70;99.90
25200;DHT22;33094;48.782;9.162;2022-08-20T04:18:09;20.60;99.90
25200;DHT22;33094;48.782;9.162;2022-08-20T04:20:36;20.60;99.90
25200;DHT22;33094;48.782;9.162;2022-08-20T04:23:03;20.50;99.90
25200;DHT22;33094;48.782;9.162;2022-08-20T04:25:30;20.60;99.90
25200;DHT22;33094;48.782;9.162;2022-08-20T04:27:59;20.50;99.90
25200;DHT22;33094;48.782;9.162;2022-08-20T04:30:27;20.50;99.90
25200;DHT22;33094;48.782;9.162;2022-08-20T04:32:53;20.50;99.90
25200;DHT22;33094;48.782;9.162;2022-08-20T04:35:20;20.50;99.90
25200;DHT22;33094;48.782;9.162;2022-08-20T04:37:49;20.90;99.90
25200;DHT22;33094;48.782;9.162;2022-08-20T04:40:16;20.60;99.90
25200;DHT22;33094;48.782;9.162;2022-08-20T04:43:01;20.30;99.90
25200;DHT22;33094;48.782;9.162;2022-08-20T04:45:29;20.10;99.90
25200;DHT22;33094;48.782;9.162;2022-08-20T04:47:54;19.90;99.90
25200;DHT22;33094;48.782;9.162;2022-08-20T04:50:20;19.80;99.90
25200;DHT22;33094;48.782;9.162;2022-08-20T04:52:46;19.80;99.90
25200;DHT22;33094;48.782;9.162;2022-08-20T04:55:13;19.90;99.90
25200;DHT22;33094;48.782;9.162;2022-08-20T04:57:41;19.80;99.90
25200;DHT22;33094;48.782;9.162;2022-08-20T05:00:07;19.70;99.90
25200;DHT22;33094;48.782;9.162;2022-08-20T05:02:34;19.70;99.90
25200;DHT22;33094;48.782;9.162;2022-08-20T05:05:00;19.80;99.90
25200;DHT22;33094;48.782;9.162;2022-08-20T05:07:26;19.80;99.90
25200;DHT22;33094;48.782;9.162;2022-08-20T05:09:51;19.80;99.90
25200;DHT22;33094;48.782;9.162;2022-08-20T05:12:17;19.80;99.90
25200;DHT22;33094;48.782;9.162;2022-08-20T05:14:44;20.40;99.90
25200;DHT22;33094;48.782;9.162;2022-08-20T05:17:09;19.80;99.90
25200;DHT22;33094;48.782;9.162;2022-08-20T05:19:39;19.80;99.90
25200;DHT22;33094;48.782;9.162;2022-08-20T05:22:05;19.70;99.90
25200;DHT22;33094;48.782;9.162;2022-08-20T05:24:31;19.80;99.90
25200;DHT22;33094;48.782;9.162;2022-08-20T05:26:58;19.80;99.90
25200;DHT22;33094;48.782;9.162;2022-08-20T05:29:23;19.70;99.90
25200;DHT22;33094;48.782;9.162;2022-08-20T05:31:49;19.60;99.90
25200;DHT22;33094;48.782;9.162;2022-08-20T05:34:15;20.20;99.90
25200;DHT22;33094;48.782;9.162;2022-08-20T05:36:41;19.60;99.90
25200;DHT22;33094;48.782;9.162;2022-08-20T05:39:08;19.60;99.90
25200;DHT22;33094;48.782;9.162;2022-08-20T05:41:33;19.70;99.90
25200;DHT22;33094;48.782;9.162;2022-08-20T05:43:59;19.80;99.90
25200;DHT22;33094;48.782;9.162;2022-08-20T05:46:30;19.90;99.90
25200;DHT22;33094;48.782;9.162;2022-08-20T05:48:55;19.90;99.90
25200;DHT22;33094;48.782;9.162;2022-08-20T05:51:21;19.90;99.90
25200;DHT22;33094;48.782;9.162;2022-08-20T05:53:46;20.00;99.90
25200;DHT22;33094;48.782;9.162;2022-08-20T05:56:12;20.00;99.90
25200;DHT22;33094;48.782;9.162;2022-08-20T05:58:38;20.00;99.90
25200;DHT22;33094;48.782;9.162;2022-08-20T06:01:03;20.10;99.90
25200;DHT22;33094;48.782;9.162;2022-08-20T06:03:29;20.10;99.90
25200;DHT22;33094;48.782;9.162;2022-08-20T06:06:13;20.20;99.90
25200;DHT22;33094;48.782;9.162;2022-08-20T06:08:39;20.30;99.90
25200;DHT22;33094;48.782;9.162;2022-08-20T06:11:05;20.40;99.90
25200;DHT22;33094;48.782;9.162;2022-08-20T06:13:32;20.50;99.90
25200;DHT22;33094;48.782;9.162;2022-08-20T06:15:57;20.60;99.90
25200;DHT22;33094;48.782;9.162;2022-08-20T06:18:23;20.80;99.90
25200;DHT22;33094;48.782;9.162;2022-08-20T06:20:49;22.10;99.90
25200;DHT22;33094;48.782;9.162;2022-08-20T06:23:15;20.90;99.90
25200;DHT22;33094;48.782;9.162;2022-08-20T06:25:40;20.90;99.90
25200;DHT22;33094;48.782;9.162;2022-08-20T06:28:06;20.80;99.90
25200;DHT22;33094;48.782;9.162;2022-08-20T06:30:31;20.80;99.90
25200;DHT22;33094;48.782;9.162;2022-08-20T06:32:57;20.70;99.90
25200;DHT22;33094;48.782;9.162;2022-08-20T06:35:23;20.70;99.90
25200;DHT22;33094;48.782;9.162;2022-08-20T06:37:48;20.70;99.90
25200;DHT22;33094;48.782;9.162;2022-08-20T06:40:16;20.70;99.90
25200;DHT22;33094;48.782;9.162;2022-08-20T06:42:43;20.70;99.90
25200;DHT22;33094;48.782;9.162;2022-08-20T06:45:12;20.70;99.90
25200;DHT22;33094;48.782;9.162;2022-08-20T06:47:39;20.80;99.90
25200;DHT22;33094;48.782;9.162;2022-08-20T06:50:12;20.90;99.90
25200;DHT22;33094;48.782;9.162;2022-08-20T06:52:41;21.00;99.90
25200;DHT22;33094;48.782;9.162;2022-08-20T06:55:08;21.10;99.90
25200;DHT22;33094;48.782;9.162;2022-08-20T06:57:34;21.10;99.90
25200;DHT22;33094;48.782;9.162;2022-08-20T07:00:00;21.00;99.90
25200;DHT22;33094;48.782;9.162;2022-08-20T07:02:26;21.00;99.90
25200;DHT22;33094;48.782;9.162;2022-08-20T07:04:51;21.00;99.90
25200;DHT22;33094;48.782;9.162;2022-08-20T07:07:18;21.00;99.90
25200;DHT22;33094;48.782;9.162;2022-08-20T07:09:45;21.10;99.90
25200;DHT22;33094;48.782;9.162;2022-08-20T07:12:11;21.10;99.90
25200;DHT22;33094;48.782;9.162;2022-08-20T07:14:37;21.00;99.90
25200;DHT22;33094;48.782;9.162;2022-08-20T07:17:02;21.00;99.90
25200;DHT22;33094;48.782;9.162;2022-08-20T07:19:28;21.20;99.90
25200;DHT22;33094;48.782;9.162;2022-08-20T07:21:54;21.00;99.90
25200;DHT22;33094;48.782;9.162;2022-08-20T07:24:19;21.10;99.90
25200;DHT22;33094;48.782;9.162;2022-08-20T07:26:45;21.10;99.90
25200;DHT22;33094;48.782;9.162;2022-08-20T07:29:10;21.20;99.90
25200;DHT22;33094;48.782;9.162;2022-08-20T07:31:36;21.30;99.90
25200;DHT22;33094;48.782;9.162;2022-08-20T07:34:20;21.30;99.90
25200;DHT22;33094;48.782;9.162;2022-08-20T07:36:45;21.40;99.90
25200;DHT22;33094;48.782;9.162;2022-08-20T07:39:13;21.60;99.90
25200;DHT22;33094;48.782;9.162;2022-08-20T07:41:38;21.70;99.90
25200;DHT22;33094;48.782;9.162;2022-08-20T07:44:04;23.10;99.90
25200;DHT22;33094;48.782;9.162;2022-08-20T07:46:30;21.80;99.90
25200;DHT22;33094;48.782;9.162;2022-08-20T07:48:56;22.00;99.90
25200;DHT22;33094;48.782;9.162;2022-08-20T07:51:21;21.90;99.90
25200;DHT22;33094;48.782;9.162;2022-08-20T07:53:47;22.60;99.90
25200;DHT22;33094;48.782;9.162;2022-08-20T07:56:14;22.10;99.90
25200;DHT22;33094;48.782;9.162;2022-08-20T07:58:41;26.00;99.90
25200;DHT22;33094;48.782;9.162;2022-08-20T08:01:07;22.30;99.90
25200;DHT22;33094;48.782;9.162;2022-08-20T08:03:34;22.60;99.90
25200;DHT22;33094;48.782;9.162;2022-08-20T08:06:02;22.90;99.90
25200;DHT22;33094;48.782;9.162;2022-08-20T08:08:28;22.70;99.90
25200;DHT22;33094;48.782;9.162;2022-08-20T08:10:57;22.70;99.90
25200;DHT22;33094;48.782;9.162;2022-08-20T08:13:24;22.80;99.90
25200;DHT22;33094;48.782;9.162;2022-08-20T08:15:51;22.70;99.90
25200;DHT22;33094;48.782;9.162;2022-08-20T08:18:21;22.50;99.90
25200;DHT22;33094;48.782;9.162;2022-08-20T08:20:49;22.30;99.90
25200;DHT22;33094;48.782;9.162;2022-08-20T08:23:18;22.10;99.90
25200;DHT22;33094;48.782;9.162;2022-08-20T08:25:44;22.30;99.90
25200;DHT22;33094;48.782;9.162;2022-08-20T08:28:10;22.50;99.90
25200;DHT22;33094;48.782;9.162;2022-08-20T08:30:39;22.70;99.90
25200;DHT22;33094;48.782;9.162;2022-08-20T08:33:05;22.90;99.90
25200;DHT22;33094;48.782;9.162;2022-08-20T08:35:49;22.80;99.90
25200;DHT22;33094;48.782;9.162;2022-08-20T08:38:16;23.20;99.90
25200;DHT22;33094;48.782;9.162;2022-08-20T08:40:42;22.80;99.90
25200;DHT22;33094;48.782;9.162;2022-08-20T08:43:08;22.90;99.90
25200;DHT22;33094;48.782;9.162;2022-08-20T08:45:42;23.80;99.90
25200;DHT22;33094;48.782;9.162;2022-08-20T08:48:10;23.60;99.90
25200;DHT22;33094;48.782;9.162;2022-08-20T08:50:37;23.40;99.90
25200;DHT22;33094;48.782;9.162;2022-08-20T08:53:03;22.80;99.90
25200;DHT22;33094;48.782;9.162;2022-08-20T08:55:30;22.90;99.90
25200;DHT22;33094;48.782;9.162;2022-08-20T08:57:56;22.70;99.90
25200;DHT22;33094;48.782;9.162;2022-08-20T09:00:24;22.70;99.90
25200;DHT22;33094;48.782;9.162;2022-08-20T09:02:56;22.70;99.90
25200;DHT22;33094;48.782;9.162;2022-08-20T09:05:22;22.80;99.90
25200;DHT22;33094;48.782;9.162;2022-08-20T09:07:49;22.80;99.90
25200;DHT22;33094;48.782;9.162;2022-08-20T09:10:16;22.90;99.90
25200;DHT22;33094;48.782;9.162;2022-08-20T09:12:41;22.70;99.90
25200;DHT22;33094;48.782;9.162;2022-08-20T09:15:08;23.00;99.90
25200;DHT22;33094;48.782;9.162;2022-08-20T09:17:34;23.10;99.90
25200;DHT22;33094;48.782;9.162;2022-08-20T09:20:00;23.40;99.90
25200;DHT22;33094;48.782;9.162;2022-08-20T09:22:25;21.70;99.90
25200;DHT22;33094;48.782;9.162;2022-08-20T09:24:51;22.90;99.90
25200;DHT22;33094;48.782;9.162;2022-08-20T09:27:17;23.30;99.90
25200;DHT22;33094;48.782;9.162;2022-08-20T09:29:43;23.70;99.90
25200;DHT22;33094;48.782;9.162;2022-08-20T09:32:16;26.30;99.90
25200;DHT22;33094;48.782;9.162;2022-08-20T09:34:43;23.00;99.90
25200;DHT22;33094;48.782;9.162;2022-08-20T09:37:09;23.30;99.90
25200;DHT22;33094;48.782;9.162;2022-08-20T09:39:35;23.30;99.90
25200;DHT22;33094;48.782;9.162;2022-08-20T09:42:08;23.50;99.60
25200;DHT22;33094;48.782;9.162;2022-08-20T09:44:33;23.50;99.60
25200;DHT22;33094;48.782;9.162;2022-08-20T09:46:59;23.40;99.70
25200;DHT22;33094;48.782;9.162;2022-08-20T09:49:25;23.70;99.50
25200;DHT22;33094;48.782;9.162;2022-08-20T09:51:50;23.40;99.50
25200;DHT22;33094;48.782;9.162;2022-08-20T09:54:16;23.60;99.60
25200;DHT22;33094;48.782;9.162;2022-08-20T09:56:41;24.10;98.50
25200;DHT22;33094;48.782;9.162;2022-08-20T09:59:07;24.80;97.80
25200;DHT22;33094;48.782;9.162;2022-08-20T10:01:32;24.30;98.50
25200;DHT22;33094;48.782;9.162;2022-08-20T10:03:58;24.00;99.00
25200;DHT22;33094;48.782;9.162;2022-08-20T10:06:23;26.10;99.50
25200;DHT22;33094;48.782;9.162;2022-08-20T10:08:49;23.70;99.40
25200;DHT22;33094;48.782;9.162;2022-08-20T10:11:15;23.90;98.90
25200;DHT22;33094;48.782;9.162;2022-08-20T10:13:40;23.80;98.50
25200;DHT22;33094;48.782;9.162;2022-08-20T10:16:06;23.70;98.60
25200;DHT22;33094;48.782;9.162;2022-08-20T10:18:32;23.80;98.70
25200;DHT22;33094;48.782;9.162;2022-08-20T10:20:58;23.50;99.20
25200;DHT22;33094;48.782;9.162;2022-08-20T10:23:23;24.10;99.00
25200;DHT22;33094;48.782;9.162;2022-08-20T10:25:49;24.10;98.70
25200;DHT22;33094;48.782;9.162;2022-08-20T10:28:15;24.70;98.50
25200;DHT22;33094;48.782;9.162;2022-08-20T10:30:40;24.70;98.40
25200;DHT22;33094;48.782;9.162;2022-08-20T10:33:06;24.00;99.20
25200;DHT22;33094;48.782;9.162;2022-08-20T10:35:31;23.60;99.50
25200;DHT22;33094;48.782;9.162;2022-08-20T10:37:57;26.50;99.90
25200;DHT22;33094;48.782;9.162;2022-08-20T10:40:22;23.60;99.20
25200;DHT22;33094;48.782;9.162;2022-08-20T10:42:48;24.10;98.50
25200;DHT22;33094;48.782;9.162;2022-08-20T10:45:14;27.80;95.90
25200;DHT22;33094;48.782;9.162;2022-08-20T10:47:40;28.30;94.20
25200;DHT22;33094;48.782;9.162;2022-08-20T10:50:07;27.60;94.10
25200;DHT22;33094;48.782;9.162;2022-08-20T10:52:33;26.40;95.00
25200;DHT22;33094;48.782;9.162;2022-08-20T10:54:58;25.10;96.20
25200;DHT22;33094;48.782;9.162;2022-08-20T10:57:25;24.10;97.90
25200;DHT22;33094;48.782;9.162;2022-08-20T10:59:52;23.90;98.20
25200;DHT22;33094;48.782;9.162;2022-08-20T11:02:18;23.90;98.50
25200;DHT22;33094;48.782;9.162;2022-08-20T11:04:44;23.40;99.00
25200;DHT22;33094;48.782;9.162;2022-08-20T11:07:19;23.10;99.60
25200;DHT22;33094;48.782;9.162;2022-08-20T11:09:45;23.30;99.30
25200;DHT22;33094;48.782;9.162;2022-08-20T11:12:11;23.30;99.00
25200;DHT22;33094;48.782;9.162;2022-08-20T11:14:37;23.10;99.10
25200;DHT22;33094;48.782;9.162;2022-08-20T11:17:02;23.30;98.90
25200;DHT22;33094;48.782;9.162;2022-08-20T11:19:28;23.30;98.70
25200;DHT22;33094;48.782;9.162;2022-08-20T11:21:54;23.00;98.90
25200;DHT22;33094;48.782;9.162;2022-08-20T11:24:19;23.60;98.40
25200;DHT22;33094;48.782;9.162;2022-08-20T11:26:48;23.80;97.90
25200;DHT22;33094;48.782;9.162;2022-08-20T11:29:14;23.70;98.00
25200;DHT22;33094;48.782;9.162;2022-08-20T11:31:40;23.70;98.00
25200;DHT22;33094;48.782;9.162;2022-08-20T11:34:05;23.00;98.40
25200;DHT22;33094;48.782;9.162;2022-08-20T11:36:31;23.00;98.10
25200;DHT22;33094;48.782;9.162;2022-08-20T11:38:56;23.10;98.50
25200;DHT22;33094;48.782;9.162;2022-08-20T11:41:22;23.30;98.20
25200;DHT22;33094;48.782;9.162;2022-08-20T11:43:48;23.30;98.30
25200;DHT22;33094;48.782;9.162;2022-08-20T11:46:13;23.20;98.40
25200;DHT22;33094;48.782;9.162;2022-08-20T11:48:39;23.10;98.10
25200;DHT22;33094;48.782;9.162;2022-08-20T11:51:04;23.00;98.00
25200;DHT22;33094;48.782;9.162;2022-08-20T11:53:30;22.90;98.50
25200;DHT22;33094;48.782;9.162;2022-08-20T11:55:56;22.80;98.60
25200;DHT22;33094;48.782;9.162;2022-08-20T11:58:21;23.10;98.40
25200;DHT22;33094;48.782;9.162;2022-08-20T12:00:47;23.00;98.50
25200;DHT22;33094;48.782;9.162;2022-08-20T12:03:12;23.00;98.90
25200;DHT22;33094;48.782;9.162;2022-08-20T12:05:39;22.90;99.20
25200;DHT22;33094;48.782;9.162;2022-08-20T12:08:05;23.00;98.90
25200;DHT22;33094;48.782;9.162;2022-08-20T12:10:31;23.20;99.00
25200;DHT22;33094;48.782;9.162;2022-08-20T12:12:56;23.10;99.00
25200;DHT22;33094;48.782;9.162;2022-08-20T12:15:22;23.10;98.90
25200;DHT22;33094;48.782;9.162;2022-08-20T12:17:48;23.20;98.40
25200;DHT22;33094;48.782;9.162;2022-08-20T12:20:13;23.10;98.30
25200;DHT22;33094;48.782;9.162;2022-08-20T12:22:39;23.20;98.00
25200;DHT22;33094;48.782;9.162;2022-08-20T12:25:05;25.30;98.40
25200;DHT22;33094;48.782;9.162;2022-08-20T12:27:31;23.30;98.10
25200;DHT22;33094;48.782;9.162;2022-08-20T12:30:00;23.30;97.70
25200;DHT22;33094;48.782;9.162;2022-08-20T12:32:27;24.50;97.90
25200;DHT22;33094;48.782;9.162;2022-08-20T12:34:53;23.70;97.60
25200;DHT22;33094;48.782;9.162;2022-08-20T12:37:26;23.50;98.10
25200;DHT22;33094;48.782;9.162;2022-08-20T12:39:53;23.70;97.70
25200;DHT22;33094;48.782;9.162;2022-08-20T12:42:19;23.70;97.70
25200;DHT22;33094;48.782;9.162;2022-08-20T12:44:45;24.00;97.60
25200;DHT22;33094;48.782;9.162;2022-08-20T12:47:12;24.00;97.50
25200;DHT22;33094;48.782;9.162;2022-08-20T12:49:38;24.10;97.40
25200;DHT22;33094;48.782;9.162;2022-08-20T12:52:04;24.90;97.70
25200;DHT22;33094;48.782;9.162;2022-08-20T12:54:29;24.00;97.50
25200;DHT22;33094;48.782;9.162;2022-08-20T12:56:55;24.30;97.20
25200;DHT22;33094;48.782;9.162;2022-08-20T12:59:21;24.40;97.20
25200;DHT22;33094;48.782;9.162;2022-08-20T13:01:47;24.40;97.30
25200;DHT22;33094;48.782;9.162;2022-08-20T13:04:12;24.10;97.50
25200;DHT22;33094;48.782;9.162;2022-08-20T13:06:38;23.70;98.10
25200;DHT22;33094;48.782;9.162;2022-08-20T13:09:03;23.50;98.60
25200;DHT22;33094;48.782;9.162;2022-08-20T13:11:29;22.90;99.90
25200;DHT22;33094;48.782;9.162;2022-08-20T13:13:54;22.90;99.90
25200;DHT22;33094;48.782;9.162;2022-08-20T13:16:20;22.90;99.90
25200;DHT22;33094;48.782;9.162;2022-08-20T13:18:45;22.80;99.90
25200;DHT22;33094;48.782;9.162;2022-08-20T13:21:11;23.00;99.90
25200;DHT22;33094;48.782;9.162;2022-08-20T13:23:37;22.70;99.90
25200;DHT22;33094;48.782;9.162;2022-08-20T13:26:02;25.20;99.90
25200;DHT22;33094;48.782;9.162;2022-08-20T13:28:29;22.70;99.90
25200;DHT22;33094;48.782;9.162;2022-08-20T13:30:55;22.70;99.90
25200;DHT22;33094;48.782;9.162;2022-08-20T13:33:21;23.10;99.90
25200;DHT22;33094;48.782;9.162;2022-08-20T13:35:46;23.20;99.90
25200;DHT22;33094;48.782;9.162;2022-08-20T13:38:12;23.10;99.90
25200;DHT22;33094;48.782;9.162;2022-08-20T13:40:38;23.20;99.90
25200;DHT22;33094;48.782;9.162;2022-08-20T13:43:03;23.30;99.90
25200;DHT22;33094;48.782;9.162;2022-08-20T13:45:29;23.10;99.90
25200;DHT22;33094;48.782;9.162;2022-08-20T13:47:54;23.30;99.90
25200;DHT22;33094;48.782;9.162;2022-08-20T13:50:21;23.30;99.90
25200;DHT22;33094;48.782;9.162;2022-08-20T13:52:47;23.90;99.60
25200;DHT22;33094;48.782;9.162;2022-08-20T13:55:14;23.90;99.50
25200;DHT22;33094;48.782;9.162;2022-08-20T13:57:40;24.40;98.70
25200;DHT22;33094;48.782;9.162;2022-08-20T14:00:08;24.40;98.60
25200;DHT22;33094;48.782;9.162;2022-08-20T14:02:38;24.70;98.00
25200;DHT22;33094;48.782;9.162;2022-08-20T14:05:04;24.20;98.70
25200;DHT22;33094;48.782;9.162;2022-08-20T14:07:29;24.20;98.60
25200;DHT22;33094;48.782;9.162;2022-08-20T14:09:56;23.90;98.80
25200;DHT22;33094;48.782;9.162;2022-08-20T14:12:22;25.20;99.90
25200;DHT22;33094;48.782;9.162;2022-08-20T14:14:48;23.30;99.90
25200;DHT22;33094;48.782;9.162;2022-08-20T14:20:13;23.70;99.40
25200;DHT22;33094;48.782;9.162;2022-08-20T14:22:39;24.00;98.90
25200;DHT22;33094;48.782;9.162;2022-08-20T14:25:05;23.50;99.90
25200;DHT22;33094;48.782;9.162;2022-08-20T14:27:31;23.60;99.80
25200;DHT22;33094;48.782;9.162;2022-08-20T14:29:58;23.80;99.70
25200;DHT22;33094;48.782;9.162;2022-08-20T14:32:24;24.00;99.50
25200;DHT22;33094;48.782;9.162;2022-08-20T14:34:50;24.40;99.10
25200;DHT22;33094;48.782;9.162;2022-08-20T14:37:19;24.60;98.60
25200;DHT22;33094;48.782;9.162;2022-08-20T14:39:46;24.10;98.50
25200;DHT22;33094;48.782;9.162;2022-08-20T14:42:12;27.10;99.90
25200;DHT22;33094;48.782;9.162;2022-08-20T14:44:38;23.40;99.80
25200;DHT22;33094;48.782;9.162;2022-08-20T14:47:10;24.00;99.40
25200;DHT22;33094;48.782;9.162;2022-08-20T14:49:36;24.50;98.90
25200;DHT22;33094;48.782;9.162;2022-08-20T14:52:01;24.80;97.50
25200;DHT22;33094;48.782;9.162;2022-08-20T14:54:27;24.90;97.20
25200;DHT22;33094;48.782;9.162;2022-08-20T14:56:52;24.30;98.80
25200;DHT22;33094;48.782;9.162;2022-08-20T14:59:19;24.20;99.00
25200;DHT22;33094;48.782;9.162;2022-08-20T15:01:44;23.90;99.80
25200;DHT22;33094;48.782;9.162;2022-08-20T15:04:10;24.00;99.50
25200;DHT22;33094;48.782;9.162;2022-08-20T15:06:35;23.90;99.90
25200;DHT22;33094;48.782;9.162;2022-08-20T15:09:01;23.60;99.90
25200;DHT22;33094;48.782;9.162;2022-08-20T15:11:26;23.40;99.90
25200;DHT22;33094;48.782;9.162;2022-08-20T15:13:52;23.20;99.90
25200;DHT22;33094;48.782;9.162;2022-08-20T15:16:18;23.10;99.90
25200;DHT22;33094;48.782;9.162;2022-08-20T15:18:44;23.20;99.90
25200;DHT22;33094;48.782;9.162;2022-08-20T15:21:09;23.60;99.90
25200;DHT22;33094;48.782;9.162;2022-08-20T15:23:35;23.30;99.90
25200;DHT22;33094;48.782;9.162;2022-08-20T15:26:00;23.10;99.90
25200;DHT22;33094;48.782;9.162;2022-08-20T15:28:26;23.40;99.90
25200;DHT22;33094;48.782;9.162;2022-08-20T15:30:51;23.70;99.90